• Join FlightAware (Why Join?)
  • Login
  • US Flag 
08:10PM EDT


 

Airport Tracker/Info


-or-


 

Live Flight TrackerFlight Track Log ✈ EJA829P ✈ 05-Nov-2013 ✈ KGRR - KDLZ

Flight Track Log - Related Links

Times and Time Zones

All times are in EST time to prevent confusion due to time zone crossing. See the EJA829P flight status page for this flight to view local times or setup timezone preferences in your user account.

Time Position Orientation Groundspeed Altitude Reporting Facility
EST Latitude Longitude Course Direction KTS MPH feet Rate Location/Type
04:46PM 42.8689 -85.5703 225° Southwest 215 247 2,900  Level Chicago Center
04:47PM 42.8258 -85.6286 225° Southwest 215 247 6,700 3,720 Climbing Chicago Center
04:48PM 42.7447 -85.6358 184° South 257 296 10,700 3,540 Climbing Chicago Center
04:49PM 42.6650 -85.6142 169° South 283 326 14,100 2,880 Climbing Chicago Center
04:50PM 42.5794 -85.5922 169° South 304 350 16,700 1,380 Climbing Chicago Center
04:51PM 42.4858 -85.5675 169° South 334 384 17,000 120 Climbing Chicago Center
04:52PM 42.3942 -85.5442 169° South 337 388 17,000  Level Chicago Center
04:53PM 42.3019 -85.5206 169° South 337 388 17,000 -780 Level Chicago Center
04:54PM 42.1856 -85.4906 169° South 354 407 15,500 -1,020 Descending Chicago Center
04:55PM 42.0975 -85.4681 169° South 328 377 15,000 -300 Descending Chicago Center
04:56PM 42.0111 -85.4450 169° South 318 366 15,000  Level Chicago Center
04:57PM 41.9139 -85.4214 170° South 321 369 15,000  Level Chicago Center
04:58PM 41.8253 -85.3992 169° South 323 372 15,000  Level Chicago Center
04:59PM 41.7364 -85.3761 169° South 324 373 15,000  Level Chicago Center
05:00PM 41.6447 -85.3522 169° South 324 373 15,000  Level Chicago Center
05:02PM 41.5506 -85.3289 169° South 331 381 15,000  Level Chicago Center
05:03PM 41.4594 -85.3067 170° South 331 381 15,000  Level Chicago Center
05:04PM 41.3686 -85.2839 169° South 331 381 15,000  Level Chicago Center
05:05PM 41.2772 -85.2603 169° South 333 383 15,000  Level Chicago Center
05:06PM 41.1672 -85.2328 169° South 334 384 15,000  Level Chicago Center
05:07PM 41.0758 -85.2094 169° South 335 386 15,000  Level Chicago Center
05:08PM 40.9878 -85.1767 164° South 334 384 15,000  Level Chicago Center
05:09PM 40.9419 -85.0642 118° Southeast 347 399 15,000  Level Chicago Center
05:10PM 40.9053 -84.9456 112° Southeast 351 404 15,000  Level Chicago Center
05:11PM 40.8617 -84.8028 112° Southeast 351 404 15,000  Level Chicago Center
05:12PM 40.8239 -84.6822 112° Southeast 354 407 15,000  Level Chicago Center
05:13PM 40.7867 -84.5617 112° Southeast 356 410 15,000  Level Chicago Center
05:14PM 40.7494 -84.4439 113° Southeast 351 404 15,000  Level Chicago Center
05:15PM 40.7131 -84.3239 112° Southeast 352 405 15,000  Level Chicago Center
05:16PM 40.6633 -84.1672 113° Southeast 356 410 15,000  Level Indianapolis Center
05:17PM 40.6247 -84.0458 113° Southeast 358 412 15,000 -480 Level Indianapolis Center
05:18PM 40.5881 -83.9283 112° Southeast 349 402 14,100 -1,020 Descending Indianapolis Center
05:19PM 40.5617 -83.8461 113° Southeast 326 375 13,300 -1,260 Descending Indianapolis Center
05:19PM 40.5531 -83.8172 111° Southeast 334 384 12,800 -1,320 Descending Indianapolis Center
05:20PM 40.5150 -83.7058 114° Southeast 321 369 11,600 -1,200 Descending Indianapolis Center
05:20PM 40.5181 -83.7097 316° Northwest 323 372 11,600 -1,500 Level Indianapolis Center
05:21PM 40.4814 -83.6008 114° Southeast 307 353 10,100 -1,500 Descending Indianapolis Center
05:21PM 40.4853 -83.6044 325° Northwest 315 362 10,100 -1,500 Level Indianapolis Center
05:22PM 40.4511 -83.5022 114° Southeast 294 338 8,600 -1,680 Descending Indianapolis Center
05:22PM 40.4464 -83.4858 111° Southeast 300 345 8,400 -1,560 Descending Indianapolis Center
05:23PM 40.4136 -83.3939 115° Southeast 282 325 6,900 -1,500 Descending Indianapolis Center
05:23PM 40.4153 -83.3903 59° Northeast 289 333 6,900 -1,800 Level Indianapolis Center
05:24PM 40.3881 -83.3100 114° Southeast 270 311 5,300 -1,800 Descending Indianapolis Center
05:24PM 40.3853 -83.2986 108° East 279 321 5,100 -1,920 Descending Indianapolis Center
05:25PM 40.3528 -83.2189 118° Southeast 257 296 3,200 -1,860 Descending Indianapolis Center
05:25PM 40.3531 -83.2167 81° East 266 306 3,200 -240 Level Indianapolis Center
05:26PM 40.3006 -83.1481 135° Southeast 256 295 3,000 -240 Descending Indianapolis Center